Time;durP1;ratioP1;P1;durP2;ratioP2;P2;SDS_P1;SDS_P2;PMS_P1;PMS_P2;Temp;Humidity;BMP_temperature;BMP_pressure;BME280_temperature;BME280_humidity;BME280_pressure;Samples;Min_cycle;Max_cycle;Signal;HPM_P1;HPM_P2
2021/04/19 00:02:09;;;;;;;17.57;15.50;;;;;;;;;;5010719;28;20269;-75
2021/04/19 00:04:34;;;;;;;21.57;16.23;;;;;;;;;;5025925;28;20306;-75
2021/04/19 00:06:59;;;;;;;20.50;17.03;;;;;;;;;;5011281;28;20191;-75
2021/04/19 00:09:25;;;;;;;20.97;16.47;;;;;;;;;;5009668;28;20288;-75
2021/04/19 00:11:50;;;;;;;19.87;17.17;;;;;;;;;;5014574;28;20237;-76
2021/04/19 00:14:18;;;;;;;22.50;17.63;;;;;;;;;;5015931;28;20236;-75
2021/04/19 00:16:43;;;;;;;19.33;16.20;;;;;;;;;;5004937;28;20232;-75
2021/04/19 00:19:08;;;;;;;19.97;17.00;;;;;;;;;;5011761;28;20731;-75
2021/04/19 00:21:34;;;;;;;19.07;16.13;;;;;;;;;;5014788;28;20218;-75
2021/04/19 00:23:59;;;;;;;20.73;17.17;;;;;;;;;;5014668;28;20198;-75
2021/04/19 00:26:25;;;;;;;19.60;17.17;;;;;;;;;;5006280;28;20224;-75
2021/04/19 00:28:50;;;;;;;19.80;15.67;;;;;;;;;;5005016;28;20196;-75
2021/04/19 00:31:15;;;;;;;22.37;16.23;;;;;;;;;;5006794;28;20267;-76
2021/04/19 00:33:41;;;;;;;21.70;17.00;;;;;;;;;;5016475;28;20220;-75
2021/04/19 00:36:06;;;;;;;20.03;17.23;;;;;;;;;;5007727;28;20222;-75
2021/04/19 00:38:32;;;;;;;19.47;17.10;;;;;;;;;;5010200;28;20218;-75
2021/04/19 00:41:00;;;;;;;20.10;16.87;;;;;;;;;;5017857;28;20551;-75
2021/04/19 00:43:28;;;;;;;18.53;16.47;;;;;;;;;;5006892;28;20190;-75
2021/04/19 00:46:02;;;;;;;18.60;16.60;;;;;;;;;;5006274;28;20217;-75
2021/04/19 00:48:27;;;;;;;18.90;15.50;;;;;;;;;;5010018;28;20203;-75
2021/04/19 00:50:55;;;;;;;20.93;16.70;;;;;;;;;;5013889;28;20196;-75
2021/04/19 00:53:20;;;;;;;19.50;16.93;;;;;;;;;;5013732;28;20269;-76
2021/04/19 00:55:46;;;;;;;19.57;16.23;;;;;;;;;;5008676;28;20726;-75
2021/04/19 00:58:12;;;;;;;17.93;15.67;;;;;;;;;;5010391;28;20207;-74
2021/04/19 01:00:37;;;;;;;20.30;17.43;;;;;;;;;;5016514;28;20191;-75
2021/04/19 01:03:03;;;;;;;20.87;16.60;;;;;;;;;;5021068;28;20247;-74
2021/04/19 01:05:37;;;;;;;20.50;17.53;;;;;;;;;;5016120;28;20218;-75
2021/04/19 01:08:05;;;;;;;23.20;18.00;;;;;;;;;;5012219;28;20337;-74
2021/04/19 01:10:31;;;;;;;20.77;18.00;;;;;;;;;;5017281;28;20203;-74
2021/04/19 01:12:56;;;;;;;23.50;18.53;;;;;;;;;;5012704;28;20773;-76
2021/04/19 01:15:21;;;;;;;21.77;17.47;;;;;;;;;;5014017;28;20218;-74
2021/04/19 01:17:47;;;;;;;20.80;17.63;;;;;;;;;;5008506;28;20683;-74
2021/04/19 01:20:23;;;;;;;20.63;18.43;;;;;;;;;;5016534;28;20263;-76
2021/04/19 01:22:48;;;;;;;20.37;17.57;;;;;;;;;;5011128;28;20214;-76
2021/04/19 01:25:18;;;;;;;18.27;16.30;;;;;;;;;;5011147;28;20203;-74
2021/04/19 01:27:43;;;;;;;18.83;16.80;;;;;;;;;;5014224;28;20184;-75
2021/04/19 01:30:09;;;;;;;22.73;18.60;;;;;;;;;;5012423;28;20249;-74
2021/04/19 01:32:35;;;;;;;19.20;16.73;;;;;;;;;;5013336;28;20194;-74
2021/04/19 01:35:03;;;;;;;21.73;18.00;;;;;;;;;;5012406;28;20233;-75
2021/04/19 01:37:29;;;;;;;22.37;18.03;;;;;;;;;;5012516;28;20213;-74
2021/04/19 01:39:54;;;;;;;20.50;18.27;;;;;;;;;;5010694;28;20274;-75
2021/04/19 01:42:19;;;;;;;22.57;18.13;;;;;;;;;;5014713;28;20659;-75
2021/04/19 01:44:44;;;;;;;22.63;19.13;;;;;;;;;;5014669;28;20210;-75
2021/04/19 01:47:11;;;;;;;20.47;18.27;;;;;;;;;;5010548;28;20796;-75
2021/04/19 01:49:36;;;;;;;22.73;18.73;;;;;;;;;;5024713;28;20243;-74
2021/04/19 01:52:02;;;;;;;23.90;18.70;;;;;;;;;;5012453;28;20207;-75
2021/04/19 01:54:28;;;;;;;21.37;17.60;;;;;;;;;;5008027;28;20195;-75
2021/04/19 01:56:54;;;;;;;22.50;18.87;;;;;;;;;;5012723;28;20218;-75
2021/04/19 01:59:20;;;;;;;22.40;18.77;;;;;;;;;;5014163;28;20226;-76
2021/04/19 02:01:56;;;;;;;20.37;18.07;;;;;;;;;;5010740;28;20199;-74
2021/04/19 02:04:46;;;;;;;23.00;17.43;;;;;;;;;;5011652;28;20195;-75
2021/04/19 02:07:17;;;;;;;22.27;18.40;;;;;;;;;;5007350;28;20278;-75
2021/04/19 02:09:49;;;;;;;24.20;20.53;;;;;;;;;;5009530;28;20191;-76
2021/04/19 02:12:45;;;;;;;28.93;21.80;;;;;;;;;;5014094;28;20206;-74
2021/04/19 02:15:27;;;;;;;24.13;19.97;;;;;;;;;;5010028;28;20290;-75
2021/04/19 02:18:14;;;;;;;27.47;20.83;;;;;;;;;;5009462;28;20723;-75
2021/04/19 02:20:53;;;;;;;25.07;19.87;;;;;;;;;;5012258;28;20198;-75
2021/04/19 02:23:27;;;;;;;25.20;19.53;;;;;;;;;;5014412;28;20213;-75
2021/04/19 02:26:05;;;;;;;24.83;18.77;;;;;;;;;;5011434;28;20659;-75
2021/04/19 02:28:32;;;;;;;23.47;18.03;;;;;;;;;;5011249;28;20175;-76
2021/04/19 02:31:01;;;;;;;21.97;19.27;;;;;;;;;;5013689;28;20188;-75
2021/04/19 02:33:32;;;;;;;23.70;20.03;;;;;;;;;;5012918;28;20279;-74
2021/04/19 02:35:57;;;;;;;24.00;18.70;;;;;;;;;;5008978;28;20207;-76
2021/04/19 02:38:27;;;;;;;23.40;19.37;;;;;;;;;;5011566;28;20253;-75
2021/04/19 02:40:54;;;;;;;23.50;19.77;;;;;;;;;;5014205;28;20269;-75
2021/04/19 02:43:25;;;;;;;25.30;19.90;;;;;;;;;;5009188;28;20186;-75
2021/04/19 02:45:53;;;;;;;27.23;19.80;;;;;;;;;;5010725;28;20206;-75
2021/04/19 02:48:23;;;;;;;25.57;20.23;;;;;;;;;;5012581;28;20183;-75
2021/04/19 02:50:50;;;;;;;24.73;19.90;;;;;;;;;;5004670;28;20194;-75
2021/04/19 02:53:20;;;;;;;27.10;20.37;;;;;;;;;;5009931;28;20274;-75
2021/04/19 02:55:47;;;;;;;26.17;19.80;;;;;;;;;;5013403;28;20298;-75
2021/04/19 02:58:16;;;;;;;29.87;20.17;;;;;;;;;;5010394;28;20622;-73
2021/04/19 03:00:46;;;;;;;25.30;19.60;;;;;;;;;;5010032;28;20191;-73
2021/04/19 03:03:18;;;;;;;24.83;19.03;;;;;;;;;;5008456;28;20196;-75
2021/04/19 03:05:44;;;;;;;22.70;19.17;;;;;;;;;;5009075;28;20215;-75
2021/04/19 03:08:13;;;;;;;24.90;18.83;;;;;;;;;;5011524;28;20187;-75
2021/04/19 03:10:44;;;;;;;25.27;19.13;;;;;;;;;;5006668;28;20609;-75
2021/04/19 03:13:10;;;;;;;24.70;18.60;;;;;;;;;;5011049;28;20274;-75
2021/04/19 03:15:38;;;;;;;23.97;18.43;;;;;;;;;;5009736;28;20214;-75
2021/04/19 03:18:10;;;;;;;24.93;18.73;;;;;;;;;;5012605;28;20211;-75
2021/04/19 03:21:07;;;;;;;23.63;17.60;;;;;;;;;;5009944;28;20245;-75
2021/04/19 03:23:36;;;;;;;23.97;18.60;;;;;;;;;;5013023;28;20677;-75
2021/04/19 03:26:05;;;;;;;21.47;17.73;;;;;;;;;;5007207;28;20207;-75
2021/04/19 03:28:33;;;;;;;22.27;17.47;;;;;;;;;;5022605;28;20304;-75
2021/04/19 03:31:02;;;;;;;23.80;17.60;;;;;;;;;;5011560;28;20245;-75
2021/04/19 03:33:29;;;;;;;23.30;18.10;;;;;;;;;;5016623;28;20595;-75
2021/04/19 03:35:55;;;;;;;23.43;18.20;;;;;;;;;;5010519;28;20592;-75
2021/04/19 03:38:21;;;;;;;24.37;17.90;;;;;;;;;;5011635;28;20211;-75
2021/04/19 03:40:50;;;;;;;24.97;18.60;;;;;;;;;;5013837;28;20195;-75
2021/04/19 03:43:17;;;;;;;25.13;20.13;;;;;;;;;;5012484;28;20187;-75
2021/04/19 03:45:47;;;;;;;22.40;17.43;;;;;;;;;;5009227;28;20617;-75
2021/04/19 03:48:15;;;;;;;23.30;18.43;;;;;;;;;;5005602;28;20705;-75
2021/04/19 03:50:46;;;;;;;26.83;19.10;;;;;;;;;;5015137;28;20203;-76
2021/04/19 03:53:13;;;;;;;24.40;18.13;;;;;;;;;;5009627;28;20862;-75
2021/04/19 03:55:43;;;;;;;23.00;17.83;;;;;;;;;;5013763;28;20264;-75
2021/04/19 03:58:09;;;;;;;23.87;18.70;;;;;;;;;;5008235;28;20674;-75
2021/04/19 04:00:35;;;;;;;23.47;17.83;;;;;;;;;;5015280;28;20195;-75
2021/04/19 04:03:01;;;;;;;25.70;18.90;;;;;;;;;;5012512;28;20195;-75
2021/04/19 04:05:27;;;;;;;23.33;18.60;;;;;;;;;;5007437;28;20218;-75
2021/04/19 04:07:55;;;;;;;23.03;18.97;;;;;;;;;;5007687;28;20179;-75
2021/04/19 04:10:21;;;;;;;25.57;19.07;;;;;;;;;;5012497;28;20276;-75
2021/04/19 04:12:47;;;;;;;22.47;17.77;;;;;;;;;;5014402;28;20323;-75
2021/04/19 04:15:13;;;;;;;26.40;18.53;;;;;;;;;;5007772;28;20231;-75
2021/04/19 04:17:38;;;;;;;20.53;17.20;;;;;;;;;;5010277;28;20892;-75
2021/04/19 04:20:04;;;;;;;24.80;19.60;;;;;;;;;;5009651;28;20663;-75
2021/04/19 04:22:30;;;;;;;21.80;16.83;;;;;;;;;;5011077;28;20190;-76
2021/04/19 04:24:56;;;;;;;23.10;17.90;;;;;;;;;;5007572;28;20660;-75
2021/04/19 04:27:24;;;;;;;25.17;17.80;;;;;;;;;;5011609;28;20191;-74
2021/04/19 04:29:49;;;;;;;19.57;17.07;;;;;;;;;;5008552;28;20187;-75
2021/04/19 04:32:14;;;;;;;20.60;17.20;;;;;;;;;;5028440;28;20568;-75
2021/04/19 04:34:39;;;;;;;26.43;18.00;;;;;;;;;;5007985;28;20712;-74
2021/04/19 04:37:05;;;;;;;19.70;15.93;;;;;;;;;;5024321;28;20330;-74
2021/04/19 04:39:31;;;;;;;20.97;15.97;;;;;;;;;;5011626;28;20270;-75
2021/04/19 04:41:56;;;;;;;18.57;16.17;;;;;;;;;;5018671;28;20187;-75
2021/04/19 04:44:27;;;;;;;19.37;16.60;;;;;;;;;;5011929;28;20198;-76
2021/04/19 04:47:30;;;;;;;19.77;16.17;;;;;;;;;;5013224;28;20175;-76
2021/04/19 04:50:03;;;;;;;20.20;16.87;;;;;;;;;;5013434;28;20229;-75
2021/04/19 04:52:33;;;;;;;18.43;15.57;;;;;;;;;;5012038;28;20198;-74
2021/04/19 04:55:01;;;;;;;22.40;15.93;;;;;;;;;;5015898;28;20207;-76
2021/04/19 04:57:27;;;;;;;19.37;16.00;;;;;;;;;;5011858;28;20314;-76
2021/04/19 04:59:54;;;;;;;19.60;16.53;;;;;;;;;;5016987;28;20707;-74
2021/04/19 05:02:24;;;;;;;21.20;15.67;;;;;;;;;;5011806;28;20191;-75
2021/04/19 05:04:52;;;;;;;19.77;15.43;;;;;;;;;;5012191;28;20545;-75
2021/04/19 05:07:21;;;;;;;19.70;15.40;;;;;;;;;;5014763;28;20229;-75
2021/04/19 05:09:48;;;;;;;16.83;14.97;;;;;;;;;;5014453;28;20710;-75
2021/04/19 05:12:14;;;;;;;21.27;15.80;;;;;;;;;;5006265;28;20274;-75
2021/04/19 05:14:40;;;;;;;18.97;14.83;;;;;;;;;;5010916;28;20203;-75
2021/04/19 05:17:07;;;;;;;17.97;14.80;;;;;;;;;;5009995;28;20215;-75
2021/04/19 05:19:32;;;;;;;20.53;15.27;;;;;;;;;;5013848;28;20195;-74
2021/04/19 05:21:58;;;;;;;19.80;14.67;;;;;;;;;;5009593;28;20895;-75
2021/04/19 05:24:23;;;;;;;16.93;15.07;;;;;;;;;;5017085;28;20195;-74
2021/04/19 05:26:48;;;;;;;17.90;14.47;;;;;;;;;;5016425;28;20608;-76
2021/04/19 05:29:14;;;;;;;16.47;13.97;;;;;;;;;;5010252;28;20187;-75
2021/04/19 05:31:40;;;;;;;18.70;15.00;;;;;;;;;;5005339;28;20717;-75
2021/04/19 05:34:05;;;;;;;18.70;15.50;;;;;;;;;;5011385;28;20187;-75
2021/04/19 05:36:31;;;;;;;21.83;15.40;;;;;;;;;;5015535;28;20202;-75
2021/04/19 05:38:57;;;;;;;19.93;15.00;;;;;;;;;;5014188;28;20277;-75
2021/04/19 05:41:22;;;;;;;18.50;15.17;;;;;;;;;;5012936;28;20194;-75
2021/04/19 05:43:51;;;;;;;18.37;14.17;;;;;;;;;;5011025;28;20230;-75
2021/04/19 05:46:20;;;;;;;17.20;15.33;;;;;;;;;;5017441;28;20215;-75
2021/04/19 05:48:46;;;;;;;17.67;15.53;;;;;;;;;;5015833;28;20191;-75
2021/04/19 05:51:24;;;;;;;20.10;15.53;;;;;;;;;;5011553;28;20216;-75
2021/04/19 05:53:52;;;;;;;18.00;14.87;;;;;;;;;;5011970;28;20621;-75
2021/04/19 05:56:31;;;;;;;16.80;14.67;;;;;;;;;;5009790;28;20223;-75
2021/04/19 05:59:06;;;;;;;17.80;14.70;;;;;;;;;;5011166;28;20291;-75
2021/04/19 06:01:35;;;;;;;17.00;13.83;;;;;;;;;;5015374;28;20226;-75
2021/04/19 06:04:14;;;;;;;16.43;14.10;;;;;;;;;;5010289;28;20217;-75
2021/04/19 06:06:50;;;;;;;19.33;15.33;;;;;;;;;;5009045;28;20183;-74
2021/04/19 06:09:25;;;;;;;16.63;14.67;;;;;;;;;;5007972;28;20218;-75
2021/04/19 06:11:58;;;;;;;17.17;14.60;;;;;;;;;;5011133;28;20191;-75
2021/04/19 06:14:26;;;;;;;17.67;14.87;;;;;;;;;;5006747;28;20717;-75
2021/04/19 06:16:55;;;;;;;20.20;15.83;;;;;;;;;;5009796;28;20275;-75
2021/04/19 06:19:23;;;;;;;21.20;15.77;;;;;;;;;;5010543;28;20195;-75
2021/04/19 06:21:51;;;;;;;17.67;15.10;;;;;;;;;;5010407;28;20196;-75
2021/04/19 06:24:18;;;;;;;20.00;15.97;;;;;;;;;;5011923;28;20421;-75
2021/04/19 06:26:44;;;;;;;21.43;16.27;;;;;;;;;;5006745;28;20187;-75
2021/04/19 06:29:11;;;;;;;19.73;15.67;;;;;;;;;;5003268;28;20274;-75
2021/04/19 06:31:43;;;;;;;21.30;15.70;;;;;;;;;;5006178;28;20253;-74
2021/04/19 06:34:09;;;;;;;20.10;16.63;;;;;;;;;;5011745;28;20285;-73
2021/04/19 06:36:40;;;;;;;20.57;16.43;;;;;;;;;;5025085;28;20215;-75
2021/04/19 06:39:08;;;;;;;20.13;16.40;;;;;;;;;;5010244;28;20223;-75
2021/04/19 06:41:34;;;;;;;20.03;15.00;;;;;;;;;;5003462;28;20207;-75
2021/04/19 06:44:00;;;;;;;18.63;15.27;;;;;;;;;;5000208;28;20196;-76
2021/04/19 06:46:46;;;;;;;21.53;15.73;;;;;;;;;;5003203;28;20318;-75
2021/04/19 06:49:14;;;;;;;18.93;15.40;;;;;;;;;;5002119;28;20199;-75
2021/04/19 06:51:42;;;;;;;18.90;14.57;;;;;;;;;;5010202;28;20199;-75
2021/04/19 06:54:11;;;;;;;23.77;16.20;;;;;;;;;;5014005;28;20210;-74
2021/04/19 06:56:42;;;;;;;20.27;16.07;;;;;;;;;;5005804;28;20311;-74
2021/04/19 06:59:10;;;;;;;20.13;15.40;;;;;;;;;;5010509;28;20215;-75
2021/04/19 07:01:37;;;;;;;19.13;15.77;;;;;;;;;;5011710;28;20203;-75
2021/04/19 07:04:15;;;;;;;19.00;15.10;;;;;;;;;;5002352;28;20212;-75
2021/04/19 07:06:40;;;;;;;17.73;14.67;;;;;;;;;;5010578;28;20713;-75
2021/04/19 07:09:26;;;;;;;18.90;15.73;;;;;;;;;;5013432;28;20184;-76
2021/04/19 07:11:58;;;;;;;20.33;15.03;;;;;;;;;;5014763;28;20249;-75
2021/04/19 07:14:25;;;;;;;17.63;14.23;;;;;;;;;;5008705;28;20186;-75
2021/04/19 07:16:51;;;;;;;18.40;14.83;;;;;;;;;;5007939;28;20609;-74
2021/04/19 07:19:17;;;;;;;18.17;14.90;;;;;;;;;;5016183;28;20195;-75
2021/04/19 07:21:43;;;;;;;19.70;15.03;;;;;;;;;;5010052;28;20237;-75
2021/04/19 07:24:08;;;;;;;18.63;15.00;;;;;;;;;;5007328;28;20211;-75
2021/04/19 07:26:34;;;;;;;19.47;14.63;;;;;;;;;;5005562;28;20207;-75
2021/04/19 07:29:00;;;;;;;17.50;14.50;;;;;;;;;;5006323;28;20193;-75
2021/04/19 07:31:26;;;;;;;19.03;14.63;;;;;;;;;;5007672;28;20195;-75
2021/04/19 07:33:54;;;;;;;17.33;14.13;;;;;;;;;;4999670;28;20225;-75
2021/04/19 07:36:32;;;;;;;19.90;14.43;;;;;;;;;;5001071;28;22083;-76
2021/04/19 07:39:00;;;;;;;16.47;13.90;;;;;;;;;;5000492;28;20250;-76
2021/04/19 07:41:54;;;;;;;18.10;14.80;;;;;;;;;;5001297;28;20207;-75
2021/04/19 07:44:42;;;;;;;17.17;14.77;;;;;;;;;;5000331;28;20787;-75
2021/04/19 07:47:29;;;;;;;18.07;14.63;;;;;;;;;;4999949;28;20207;-75
2021/04/19 07:50:21;;;;;;;18.40;15.07;;;;;;;;;;5001135;28;20656;-75
2021/04/19 07:53:07;;;;;;;19.63;15.50;;;;;;;;;;5001570;28;20718;-76
2021/04/19 07:55:40;;;;;;;18.87;14.37;;;;;;;;;;4999243;28;20210;-75
2021/04/19 07:58:09;;;;;;;19.27;14.07;;;;;;;;;;5000931;28;20726;-76
2021/04/19 08:00:37;;;;;;;18.53;13.70;;;;;;;;;;4998546;28;20213;-75
2021/04/19 08:03:05;;;;;;;16.47;13.47;;;;;;;;;;4988936;28;20298;-75
2021/04/19 08:05:37;;;;;;;16.73;13.47;;;;;;;;;;4999835;28;20365;-75
2021/04/19 08:08:05;;;;;;;15.20;13.40;;;;;;;;;;4998247;28;20696;-75
2021/04/19 08:10:32;;;;;;;16.30;13.57;;;;;;;;;;4997634;28;20222;-75
2021/04/19 08:13:09;;;;;;;17.03;13.97;;;;;;;;;;5000781;28;20196;-76
2021/04/19 08:15:35;;;;;;;15.83;14.13;;;;;;;;;;4999901;28;20290;-75
2021/04/19 08:18:06;;;;;;;17.27;14.53;;;;;;;;;;5001213;28;20839;-75
2021/04/19 08:20:34;;;;;;;16.27;13.57;;;;;;;;;;4998229;28;20206;-75
2021/04/19 08:23:12;;;;;;;15.53;13.87;;;;;;;;;;5000412;28;20210;-75
2021/04/19 08:25:46;;;;;;;18.60;14.20;;;;;;;;;;5001102;28;20403;-76
2021/04/19 08:28:17;;;;;;;15.63;13.63;;;;;;;;;;5007169;28;20203;-76
2021/04/19 08:30:47;;;;;;;18.73;13.50;;;;;;;;;;4999428;28;20199;-76
2021/04/19 08:33:15;;;;;;;18.23;14.20;;;;;;;;;;5001111;28;20209;-75
2021/04/19 08:35:42;;;;;;;17.43;13.57;;;;;;;;;;4999551;28;20202;-75
2021/04/19 08:38:08;;;;;;;18.73;15.30;;;;;;;;;;5001332;28;20211;-75
2021/04/19 08:40:37;;;;;;;17.47;14.53;;;;;;;;;;5000453;28;20730;-76
2021/04/19 08:43:06;;;;;;;18.60;14.43;;;;;;;;;;5000260;28;20734;-75
2021/04/19 08:45:32;;;;;;;16.83;13.03;;;;;;;;;;4998946;28;20215;-76
2021/04/19 08:48:01;;;;;;;17.70;13.63;;;;;;;;;;5000188;28;20250;-76
2021/04/19 08:50:28;;;;;;;16.30;13.60;;;;;;;;;;5001221;28;20206;-74
2021/04/19 08:52:56;;;;;;;20.20;14.83;;;;;;;;;;5000590;28;20199;-75
2021/04/19 08:55:23;;;;;;;19.67;14.50;;;;;;;;;;4999322;28;20219;-74
2021/04/19 08:57:51;;;;;;;18.37;14.50;;;;;;;;;;5000684;28;20269;-76
2021/04/19 09:00:27;;;;;;;19.57;15.57;;;;;;;;;;5015504;28;20218;-76
2021/04/19 09:02:53;;;;;;;18.07;14.07;;;;;;;;;;5000873;28;20202;-76
2021/04/19 09:05:23;;;;;;;19.60;14.63;;;;;;;;;;4999793;28;20204;-75
2021/04/19 09:07:49;;;;;;;18.43;14.70;;;;;;;;;;5000450;28;20254;-75
2021/04/19 09:10:20;;;;;;;18.13;14.60;;;;;;;;;;5000463;28;20180;-76
2021/04/19 09:12:45;;;;;;;18.47;14.10;;;;;;;;;;5000668;28;20206;-75
2021/04/19 09:15:24;;;;;;;20.53;14.57;;;;;;;;;;4999858;28;20642;-75
2021/04/19 09:18:02;;;;;;;17.17;13.43;;;;;;;;;;5000306;28;20245;-75
2021/04/19 09:20:34;;;;;;;17.30;13.90;;;;;;;;;;5003724;28;20199;-75
2021/04/19 09:23:24;;;;;;;18.73;14.90;;;;;;;;;;5003396;28;20270;-75
2021/04/19 09:25:50;;;;;;;17.37;13.57;;;;;;;;;;5002955;28;20207;-75
2021/04/19 09:28:37;;;;;;;17.27;12.63;;;;;;;;;;5003512;28;20214;-75
2021/04/19 09:31:07;;;;;;;17.87;13.90;;;;;;;;;;5000877;28;20187;-76
2021/04/19 09:33:33;;;;;;;16.20;12.67;;;;;;;;;;5003248;28;20233;-75
2021/04/19 09:36:03;;;;;;;18.50;12.63;;;;;;;;;;5003700;28;20694;-74
2021/04/19 09:38:31;;;;;;;16.90;13.30;;;;;;;;;;5003066;28;20237;-77
2021/04/19 09:41:03;;;;;;;17.37;13.27;;;;;;;;;;5003537;28;20290;-76
2021/04/19 09:43:36;;;;;;;17.97;12.67;;;;;;;;;;5003696;28;20659;-76
2021/04/19 09:46:03;;;;;;;16.13;12.27;;;;;;;;;;5003142;28;20261;-75
2021/04/19 09:48:29;;;;;;;15.33;12.87;;;;;;;;;;5005477;28;20191;-75
2021/04/19 09:50:59;;;;;;;16.98;12.20;;;;;;;;;;5003147;28;20218;-76
2021/04/19 09:53:26;;;;;;;14.40;12.50;;;;;;;;;;5003264;28;20601;-75
2021/04/19 09:55:52;;;;;;;16.63;12.68;;;;;;;;;;5002870;28;20219;-74
2021/04/19 09:58:18;;;;;;;14.52;12.98;;;;;;;;;;5004145;28;20778;-74
2021/04/19 10:00:44;;;;;;;14.13;12.63;;;;;;;;;;5001744;28;20197;-77
2021/04/19 10:03:10;;;;;;;16.25;13.43;;;;;;;;;;5002503;28;20203;-76
2021/04/19 10:05:39;;;;;;;14.05;12.63;;;;;;;;;;5002550;28;20329;-76
2021/04/19 10:08:06;;;;;;;15.95;12.95;;;;;;;;;;5001694;28;20230;-75
2021/04/19 10:10:32;;;;;;;16.98;13.68;;;;;;;;;;5001466;28;20187;-75
2021/04/19 10:13:00;;;;;;;16.92;13.40;;;;;;;;;;5000802;28;20253;-76
2021/04/19 10:15:27;;;;;;;14.32;12.82;;;;;;;;;;5003342;28;20211;-75
2021/04/19 10:17:52;;;;;;;14.35;12.85;;;;;;;;;;5003945;28;20203;-75
2021/04/19 10:20:22;;;;;;;16.13;13.70;;;;;;;;;;5003728;28;20191;-74
2021/04/19 10:23:10;;;;;;;14.93;13.43;;;;;;;;;;5001942;28;20218;-75
2021/04/19 10:25:52;;;;;;;16.67;14.68;;;;;;;;;;5002210;28;20718;-74
2021/04/19 10:28:32;;;;;;;15.18;13.63;;;;;;;;;;5002814;28;20721;-73
2021/04/19 10:31:12;;;;;;;15.63;14.05;;;;;;;;;;5002431;28;21151;-74
2021/04/19 10:33:38;;;;;;;15.48;13.88;;;;;;;;;;5018838;28;20179;-73
2021/04/19 10:36:13;;;;;;;26.40;15.20;;;;;;;;;;5000010;28;20299;-74
2021/04/19 10:38:39;;;;;;;15.65;14.07;;;;;;;;;;5003624;28;20246;-74
2021/04/19 10:41:05;;;;;;;16.60;14.70;;;;;;;;;;5002342;28;20246;-73
2021/04/19 10:43:30;;;;;;;15.63;14.10;;;;;;;;;;5002423;28;20282;-76
2021/04/19 10:45:56;;;;;;;16.15;14.45;;;;;;;;;;5002278;28;20257;-75
2021/04/19 10:48:32;;;;;;;16.50;14.80;;;;;;;;;;5001366;28;20941;-75
2021/04/19 10:51:15;;;;;;;16.55;14.63;;;;;;;;;;5000824;28;20246;-76
2021/04/19 10:53:41;;;;;;;16.75;14.77;;;;;;;;;;4993373;28;20183;-76
2021/04/19 10:56:07;;;;;;;16.02;14.00;;;;;;;;;;5001862;28;20207;-74
2021/04/19 10:58:38;;;;;;;15.65;13.95;;;;;;;;;;5001336;28;20239;-75
2021/04/19 11:01:04;;;;;;;15.88;14.18;;;;;;;;;;5001126;28;20199;-76
2021/04/19 11:03:36;;;;;;;16.98;13.63;;;;;;;;;;5002077;28;20313;-76
2021/04/19 11:06:06;;;;;;;14.65;12.68;;;;;;;;;;5001459;28;20237;-75
2021/04/19 11:08:52;;;;;;;15.15;13.55;;;;;;;;;;5001872;28;20187;-75
2021/04/19 11:11:40;;;;;;;16.77;14.20;;;;;;;;;;4995633;28;20194;-75
2021/04/19 11:14:39;;;;;;;14.95;13.35;;;;;;;;;;5002095;28;20183;-75
2021/04/19 11:17:09;;;;;;;14.07;12.57;;;;;;;;;;4998398;28;20203;-75
2021/04/19 11:19:41;;;;;;;14.85;11.93;;;;;;;;;;5000826;28;20186;-75
2021/04/19 11:22:29;;;;;;;15.43;12.85;;;;;;;;;;5002417;28;20207;-76
2021/04/19 11:25:09;;;;;;;14.27;12.77;;;;;;;;;;5001716;28;20203;-75
2021/04/19 11:27:34;;;;;;;14.60;13.05;;;;;;;;;;5017031;28;20195;-75
2021/04/19 11:30:00;;;;;;;14.43;12.95;;;;;;;;;;5001405;28;20199;-75
2021/04/19 11:32:28;;;;;;;14.73;13.15;;;;;;;;;;5001586;28;20227;-75
2021/04/19 11:34:54;;;;;;;14.57;13.07;;;;;;;;;;5001540;28;20195;-74
2021/04/19 11:37:34;;;;;;;15.63;13.45;;;;;;;;;;5000259;28;20269;-75
2021/04/19 11:40:01;;;;;;;15.50;13.55;;;;;;;;;;5000355;28;20257;-74
2021/04/19 11:42:28;;;;;;;14.30;12.90;;;;;;;;;;5001800;28;20284;-75
2021/04/19 11:44:54;;;;;;;15.00;13.25;;;;;;;;;;5001416;28;20266;-75
2021/04/19 11:47:20;;;;;;;14.65;12.70;;;;;;;;;;5001468;28;21746;-74
2021/04/19 11:49:49;;;;;;;14.82;13.32;;;;;;;;;;4999694;28;20555;-74
2021/04/19 11:52:14;;;;;;;14.25;12.80;;;;;;;;;;5001223;28;20199;-74
2021/04/19 11:54:40;;;;;;;13.95;12.55;;;;;;;;;;5001654;28;20214;-75
2021/04/19 11:57:05;;;;;;;13.73;12.32;;;;;;;;;;5003171;28;20179;-75
2021/04/19 11:59:31;;;;;;;14.93;13.35;;;;;;;;;;5000597;28;20627;-75
2021/04/19 12:01:56;;;;;;;13.77;12.38;;;;;;;;;;4999517;28;20205;-75
2021/04/19 12:04:21;;;;;;;15.07;13.55;;;;;;;;;;5001980;28;20592;-74
2021/04/19 12:06:46;;;;;;;16.55;13.50;;;;;;;;;;4999128;28;20467;-74
2021/04/19 12:09:14;;;;;;;15.55;13.95;;;;;;;;;;5001606;28;20182;-74
2021/04/19 12:11:39;;;;;;;58.58;16.13;;;;;;;;;;5014152;28;20186;-75
2021/04/19 12:14:07;;;;;;;14.93;13.32;;;;;;;;;;5014814;28;20189;-75
2021/04/19 12:16:32;;;;;;;14.60;12.95;;;;;;;;;;5008089;28;20215;-75
2021/04/19 12:19:00;;;;;;;15.48;13.70;;;;;;;;;;5006612;28;20273;-75
2021/04/19 12:21:26;;;;;;;14.63;13.13;;;;;;;;;;5012412;28;20191;-75
2021/04/19 12:23:52;;;;;;;15.05;13.50;;;;;;;;;;5011372;28;20187;-75
2021/04/19 12:26:17;;;;;;;15.27;13.68;;;;;;;;;;5011235;28;20215;-75
2021/04/19 12:28:42;;;;;;;15.95;13.38;;;;;;;;;;5009211;28;20657;-75
2021/04/19 12:31:07;;;;;;;13.40;12.02;;;;;;;;;;5013454;28;20282;-75
2021/04/19 12:33:33;;;;;;;16.02;12.90;;;;;;;;;;5009945;28;20206;-75
2021/04/19 12:35:59;;;;;;;13.98;12.57;;;;;;;;;;5009110;28;20203;-75
2021/04/19 12:38:24;;;;;;;15.48;13.38;;;;;;;;;;5005846;28;20269;-75
2021/04/19 12:40:49;;;;;;;14.32;12.82;;;;;;;;;;5008969;28;20535;-74
2021/04/19 12:43:15;;;;;;;16.52;13.77;;;;;;;;;;5009792;28;20733;-74
2021/04/19 12:45:43;;;;;;;15.43;13.35;;;;;;;;;;5010792;28;20631;-76
2021/04/19 12:48:09;;;;;;;14.98;13.38;;;;;;;;;;5009246;28;20184;-74
2021/04/19 12:50:35;;;;;;;14.57;13.07;;;;;;;;;;5015742;28;20194;-74
2021/04/19 12:53:03;;;;;;;14.23;12.73;;;;;;;;;;5009606;28;20200;-76
2021/04/19 12:55:29;;;;;;;15.18;13.50;;;;;;;;;;5010015;28;20221;-75
2021/04/19 12:57:55;;;;;;;13.65;12.25;;;;;;;;;;5012014;28;20287;-75
2021/04/19 13:00:23;;;;;;;13.20;11.85;;;;;;;;;;5014235;28;20187;-75
2021/04/19 13:02:49;;;;;;;13.68;12.27;;;;;;;;;;5012798;28;20588;-74
2021/04/19 13:05:17;;;;;;;14.50;13.00;;;;;;;;;;5011161;28;20261;-74
2021/04/19 13:07:44;;;;;;;15.45;12.02;;;;;;;;;;5015359;28;20244;-75
2021/04/19 13:10:10;;;;;;;14.57;12.93;;;;;;;;;;5016442;28;20647;-75
2021/04/19 13:12:35;;;;;;;12.60;11.30;;;;;;;;;;5013948;28;20187;-75
2021/04/19 13:15:00;;;;;;;14.57;12.68;;;;;;;;;;5013737;28;20559;-75
2021/04/19 13:17:29;;;;;;;14.10;12.55;;;;;;;;;;5001877;28;20250;-75
2021/04/19 13:19:56;;;;;;;15.13;13.38;;;;;;;;;;5003288;28;20214;-75
2021/04/19 13:22:25;;;;;;;15.20;12.10;;;;;;;;;;5002191;28;20673;-75
2021/04/19 13:24:51;;;;;;;14.13;12.27;;;;;;;;;;5001884;28;20222;-75
2021/04/19 13:27:19;;;;;;;17.57;13.10;;;;;;;;;;5004908;28;20198;-75
2021/04/19 13:29:49;;;;;;;14.55;12.55;;;;;;;;;;5002837;28;20206;-75
2021/04/19 13:32:14;;;;;;;15.17;13.43;;;;;;;;;;5003569;28;20202;-75
2021/04/19 13:34:40;;;;;;;14.43;12.83;;;;;;;;;;5003917;28;20215;-75
2021/04/19 13:37:08;;;;;;;13.67;12.07;;;;;;;;;;5004612;28;20292;-75
2021/04/19 13:39:33;;;;;;;15.47;13.17;;;;;;;;;;5003811;28;20715;-75
2021/04/19 13:42:01;;;;;;;16.77;13.93;;;;;;;;;;5003487;28;20273;-75
2021/04/19 13:44:26;;;;;;;14.87;13.37;;;;;;;;;;5001752;28;20211;-75
2021/04/19 13:46:55;;;;;;;15.73;13.47;;;;;;;;;;5003421;28;20198;-75
2021/04/19 13:49:21;;;;;;;15.13;13.33;;;;;;;;;;5002930;28;20202;-75
2021/04/19 13:51:47;;;;;;;17.20;14.13;;;;;;;;;;5001924;28;20190;-75
2021/04/19 13:54:12;;;;;;;16.10;12.47;;;;;;;;;;5003418;28;20543;-75
2021/04/19 13:56:38;;;;;;;16.73;14.57;;;;;;;;;;5002824;28;20368;-75
2021/04/19 13:59:03;;;;;;;17.27;13.37;;;;;;;;;;5003534;28;20215;-75
2021/04/19 14:01:30;;;;;;;17.10;12.97;;;;;;;;;;5003159;28;20199;-74
2021/04/19 14:03:56;;;;;;;16.63;13.43;;;;;;;;;;5002009;28;20202;-75
2021/04/19 14:06:21;;;;;;;16.20;13.87;;;;;;;;;;5002955;28;20211;-75
2021/04/19 14:08:46;;;;;;;18.10;13.63;;;;;;;;;;5002911;28;20270;-75
2021/04/19 14:11:11;;;;;;;15.67;12.90;;;;;;;;;;5003979;28;20277;-75
2021/04/19 14:13:37;;;;;;;17.53;14.23;;;;;;;;;;5003366;28;20194;-75
2021/04/19 14:16:02;;;;;;;18.27;14.20;;;;;;;;;;5000941;28;20725;-74
2021/04/19 14:18:35;;;;;;;18.33;14.23;;;;;;;;;;5001593;28;20230;-77
2021/04/19 14:21:00;;;;;;;16.40;13.83;;;;;;;;;;5002758;28;20192;-74
2021/04/19 14:23:25;;;;;;;18.37;13.93;;;;;;;;;;5004285;28;20192;-76
2021/04/19 14:25:51;;;;;;;17.20;13.97;;;;;;;;;;5002059;28;21463;-76
2021/04/19 14:28:16;;;;;;;19.83;15.43;;;;;;;;;;5003843;28;20258;-75